sensor_id;sensor_type;location;lat;lon;timestamp;noise_LAeq;noise_LA_min;noise_LA_max;noise_LA01;noise_LA95
37833;Laerm;23678;48.778;9.160;2022-10-19T00:01:34;37.93;33.44;40.23;;
37833;Laerm;23678;48.778;9.160;2022-10-19T00:04:00;37.91;33.44;40.33;;
37833;Laerm;23678;48.778;9.160;2022-10-19T00:09:02;37.95;33.90;40.43;;
37833;Laerm;23678;48.778;9.160;2022-10-19T00:11:28;37.92;34.31;40.33;;
37833;Laerm;23678;48.778;9.160;2022-10-19T00:13:54;38.53;33.90;44.76;;
37833;Laerm;23678;48.778;9.160;2022-10-19T00:16:20;39.81;32.93;52.79;;
37833;Laerm;23678;48.778;9.160;2022-10-19T00:18:45;38.10;33.90;40.62;;
37833;Laerm;23678;48.778;9.160;2022-10-19T00:21:12;37.96;33.90;40.43;;
37833;Laerm;23678;48.778;9.160;2022-10-19T00:23:38;37.95;32.93;40.62;;
37833;Laerm;23678;48.778;9.160;2022-10-19T00:26:03;37.95;33.44;40.33;;
37833;Laerm;23678;48.778;9.160;2022-10-19T00:28:29;39.05;33.97;47.42;;
37833;Laerm;23678;48.778;9.160;2022-10-19T00:30:54;38.05;33.90;40.80;;
37833;Laerm;23678;48.778;9.160;2022-10-19T00:33:20;38.27;34.31;41.53;;
37833;Laerm;23678;48.778;9.160;2022-10-19T00:35:49;37.91;33.90;40.62;;
37833;Laerm;23678;48.778;9.160;2022-10-19T00:38:15;37.92;33.44;40.71;;
37833;Laerm;23678;48.778;9.160;2022-10-19T00:40:41;38.04;34.31;41.06;;
37833;Laerm;23678;48.778;9.160;2022-10-19T00:43:13;37.93;33.44;42.65;;
37833;Laerm;23678;48.778;9.160;2022-10-19T00:45:39;37.92;32.93;40.71;;
37833;Laerm;23678;48.778;9.160;2022-10-19T00:48:05;37.92;33.44;40.53;;
37833;Laerm;23678;48.778;9.160;2022-10-19T00:50:30;38.00;33.90;41.61;;
37833;Laerm;23678;48.778;9.160;2022-10-19T00:52:55;38.09;33.44;40.53;;
37833;Laerm;23678;48.778;9.160;2022-10-19T00:55:21;37.97;33.44;40.62;;
37833;Laerm;23678;48.778;9.160;2022-10-19T00:57:46;37.99;34.31;40.98;;
37833;Laerm;23678;48.778;9.160;2022-10-19T01:00:11;38.18;33.44;40.53;;
37833;Laerm;23678;48.778;9.160;2022-10-19T01:02:37;38.21;34.69;40.80;;
37833;Laerm;23678;48.778;9.160;2022-10-19T01:05:02;38.44;33.90;48.21;;
37833;Laerm;23678;48.778;9.160;2022-10-19T01:07:28;37.95;34.31;40.33;;
37833;Laerm;23678;48.778;9.160;2022-10-19T01:09:53;37.95;33.44;40.43;;
37833;Laerm;23678;48.778;9.160;2022-10-19T01:25:08;38.01;33.90;40.43;;
37833;Laerm;23678;48.778;9.160;2022-10-19T01:44:11;38.11;34.69;40.62;;
37833;Laerm;23678;48.778;9.160;2022-10-19T01:46:39;37.95;33.90;40.43;;
37833;Laerm;23678;48.778;9.160;2022-10-19T01:51:36;37.93;32.93;40.45;;
37833;Laerm;23678;48.778;9.160;2022-10-19T01:54:04;38.05;33.44;43.63;;
37833;Laerm;23678;48.778;9.160;2022-10-19T01:56:30;38.16;34.31;41.14;;
37833;Laerm;23678;48.778;9.160;2022-10-19T01:58:57;37.97;33.44;40.62;;
37833;Laerm;23678;48.778;9.160;2022-10-19T02:01:24;37.90;32.93;40.43;;
37833;Laerm;23678;48.778;9.160;2022-10-19T02:03:51;38.84;32.35;49.16;;
37833;Laerm;23678;48.778;9.160;2022-10-19T02:06:18;37.92;33.90;40.62;;
37833;Laerm;23678;48.778;9.160;2022-10-19T02:08:45;37.95;34.31;40.43;;
37833;Laerm;23678;48.778;9.160;2022-10-19T02:11:10;37.92;33.44;40.80;;
37833;Laerm;23678;48.778;9.160;2022-10-19T02:13:36;37.96;33.90;41.22;;
37833;Laerm;23678;48.778;9.160;2022-10-19T02:16:04;37.95;33.44;40.62;;
37833;Laerm;23678;48.778;9.160;2022-10-19T02:18:32;37.98;33.44;41.14;;
37833;Laerm;23678;48.778;9.160;2022-10-19T02:21:00;38.03;33.90;40.53;;
37833;Laerm;23678;48.778;9.160;2022-10-19T02:23:26;37.98;32.93;40.80;;
37833;Laerm;23678;48.778;9.160;2022-10-19T02:25:52;37.98;33.90;40.62;;
37833;Laerm;23678;48.778;9.160;2022-10-19T02:28:18;37.98;32.93;40.89;;
37833;Laerm;23678;48.778;9.160;2022-10-19T02:30:43;39.21;33.44;49.94;;
37833;Laerm;23678;48.778;9.160;2022-10-19T02:33:09;38.03;33.44;40.62;;
37833;Laerm;23678;48.778;9.160;2022-10-19T02:35:36;38.44;33.90;41.82;;
37833;Laerm;23678;48.778;9.160;2022-10-19T02:38:01;38.08;34.31;40.89;;
37833;Laerm;23678;48.778;9.160;2022-10-19T02:40:29;38.18;33.90;40.89;;
37833;Laerm;23678;48.778;9.160;2022-10-19T02:42:59;38.29;34.31;41.06;;
37833;Laerm;23678;48.778;9.160;2022-10-19T02:45:34;38.32;34.31;41.68;;
37833;Laerm;23678;48.778;9.160;2022-10-19T02:48:03;38.29;34.31;41.06;;
37833;Laerm;23678;48.778;9.160;2022-10-19T02:50:29;38.14;33.44;40.33;;
37833;Laerm;23678;48.778;9.160;2022-10-19T02:52:57;38.13;33.90;41.22;;
37833;Laerm;23678;48.778;9.160;2022-10-19T02:55:22;38.21;34.69;41.75;;
37833;Laerm;23678;48.778;9.160;2022-10-19T02:57:47;38.21;34.31;44.19;;
37833;Laerm;23678;48.778;9.160;2022-10-19T03:00:13;38.20;34.69;40.89;;
37833;Laerm;23678;48.778;9.160;2022-10-19T03:02:40;38.33;32.93;41.46;;
37833;Laerm;23678;48.778;9.160;2022-10-19T03:05:06;39.24;34.31;50.86;;
37833;Laerm;23678;48.778;9.160;2022-10-19T03:07:32;38.88;33.90;46.80;;
37833;Laerm;23678;48.778;9.160;2022-10-19T03:09:57;38.33;32.93;42.47;;
37833;Laerm;23678;48.778;9.160;2022-10-19T03:12:22;38.07;34.34;40.71;;
37833;Laerm;23678;48.778;9.160;2022-10-19T03:14:47;38.22;34.69;42.09;;
37833;Laerm;23678;48.778;9.160;2022-10-19T03:17:13;38.35;33.44;44.87;;
37833;Laerm;23678;48.778;9.160;2022-10-19T03:19:38;38.18;34.34;41.06;;
37833;Laerm;23678;48.778;9.160;2022-10-19T03:22:04;39.03;34.69;44.95;;
37833;Laerm;23678;48.778;9.160;2022-10-19T03:24:29;39.45;34.34;49.55;;
37833;Laerm;23678;48.778;9.160;2022-10-19T03:26:55;38.14;32.93;40.62;;
37833;Laerm;23678;48.778;9.160;2022-10-19T03:29:20;38.46;34.31;42.98;;
37833;Laerm;23678;48.778;9.160;2022-10-19T03:31:45;38.41;34.31;42.41;;
37833;Laerm;23678;48.778;9.160;2022-10-19T03:34:11;38.29;32.93;41.61;;
37833;Laerm;23678;48.778;9.160;2022-10-19T03:36:37;38.19;33.44;40.71;;
37833;Laerm;23678;48.778;9.160;2022-10-19T03:39:04;38.33;33.44;41.06;;
37833;Laerm;23678;48.778;9.160;2022-10-19T03:41:31;38.52;32.93;47.54;;
37833;Laerm;23678;48.778;9.160;2022-10-19T03:43:57;38.94;34.31;43.99;;
37833;Laerm;23678;48.778;9.160;2022-10-19T03:46:22;41.55;34.31;54.76;;
37833;Laerm;23678;48.778;9.160;2022-10-19T03:48:48;38.39;33.90;43.34;;
37833;Laerm;23678;48.778;9.160;2022-10-19T03:51:15;42.42;34.69;55.57;;
37833;Laerm;23678;48.778;9.160;2022-10-19T03:53:41;38.45;34.31;44.11;;
37833;Laerm;23678;48.778;9.160;2022-10-19T03:56:09;38.81;35.04;43.39;;
37833;Laerm;23678;48.778;9.160;2022-10-19T03:58:35;38.46;34.31;43.58;;
37833;Laerm;23678;48.778;9.160;2022-10-19T04:01:04;38.32;33.90;41.68;;
37833;Laerm;23678;48.778;9.160;2022-10-19T04:03:30;38.37;34.69;41.14;;
37833;Laerm;23678;48.778;9.160;2022-10-19T04:06:00;38.15;33.44;41.14;;
37833;Laerm;23678;48.778;9.160;2022-10-19T04:08:26;38.38;34.31;42.76;;
37833;Laerm;23678;48.778;9.160;2022-10-19T04:10:51;39.43;35.36;49.62;;
37833;Laerm;23678;48.778;9.160;2022-10-19T04:13:16;38.45;34.31;41.06;;
37833;Laerm;23678;48.778;9.160;2022-10-19T04:15:41;38.27;34.31;41.14;;
37833;Laerm;23678;48.778;9.160;2022-10-19T04:18:07;39.07;34.31;42.98;;
37833;Laerm;23678;48.778;9.160;2022-10-19T04:20:32;38.37;33.90;44.98;;
37833;Laerm;23678;48.778;9.160;2022-10-19T04:22:58;40.11;34.69;48.61;;
37833;Laerm;23678;48.778;9.160;2022-10-19T04:25:23;38.58;34.69;42.69;;
37833;Laerm;23678;48.778;9.160;2022-10-19T04:27:48;38.70;35.01;41.38;;
37833;Laerm;23678;48.778;9.160;2022-10-19T04:30:13;41.16;35.04;48.45;;
37833;Laerm;23678;48.778;9.160;2022-10-19T04:32:39;39.34;35.04;47.22;;
37833;Laerm;23678;48.778;9.160;2022-10-19T04:35:04;40.29;33.90;51.13;;
37833;Laerm;23678;48.778;9.160;2022-10-19T04:37:30;40.10;33.44;54.23;;
37833;Laerm;23678;48.778;9.160;2022-10-19T04:39:55;42.41;35.36;57.00;;
37833;Laerm;23678;48.778;9.160;2022-10-19T04:42:20;40.09;35.04;51.16;;
37833;Laerm;23678;48.778;9.160;2022-10-19T04:44:46;40.14;33.90;51.37;;
37833;Laerm;23678;48.778;9.160;2022-10-19T04:47:11;39.91;35.04;48.34;;
37833;Laerm;23678;48.778;9.160;2022-10-19T04:49:36;41.78;35.01;53.00;;
37833;Laerm;23678;48.778;9.160;2022-10-19T04:52:02;42.54;37.70;52.88;;
37833;Laerm;23678;48.778;9.160;2022-10-19T04:54:27;40.60;35.04;53.43;;
37833;Laerm;23678;48.778;9.160;2022-10-19T04:56:52;40.43;35.04;52.37;;
37833;Laerm;23678;48.778;9.160;2022-10-19T04:59:18;38.81;34.69;42.76;;
37833;Laerm;23678;48.778;9.160;2022-10-19T05:01:43;39.68;35.04;48.07;;
37833;Laerm;23678;48.778;9.160;2022-10-19T05:04:08;42.29;36.10;53.93;;
37833;Laerm;23678;48.778;9.160;2022-10-19T05:06:34;40.42;35.04;52.02;;
37833;Laerm;23678;48.778;9.160;2022-10-19T05:08:59;39.36;35.36;45.11;;
37833;Laerm;23678;48.778;9.160;2022-10-19T05:11:25;40.50;35.36;51.63;;
37833;Laerm;23678;48.778;9.160;2022-10-19T05:13:51;41.21;35.36;53.33;;
37833;Laerm;23678;48.778;9.160;2022-10-19T05:16:17;45.83;37.12;58.35;;
37833;Laerm;23678;48.778;9.160;2022-10-19T05:18:47;41.21;36.20;50.63;;
37833;Laerm;23678;48.778;9.160;2022-10-19T05:21:13;42.40;35.04;53.02;;
37833;Laerm;23678;48.778;9.160;2022-10-19T05:23:39;42.04;35.36;51.77;;
37833;Laerm;23678;48.778;9.160;2022-10-19T05:28:30;40.57;35.66;54.46;;
37833;Laerm;23678;48.778;9.160;2022-10-19T05:31:03;41.62;36.45;49.81;;
37833;Laerm;23678;48.778;9.160;2022-10-19T05:33:28;41.86;36.91;47.98;;
37833;Laerm;23678;48.778;9.160;2022-10-19T05:35:53;43.06;38.05;51.54;;
37833;Laerm;23678;48.778;9.160;2022-10-19T05:38:18;42.48;37.32;51.54;;
37833;Laerm;23678;48.778;9.160;2022-10-19T05:40:44;43.10;37.52;52.81;;
37833;Laerm;23678;48.778;9.160;2022-10-19T05:43:10;41.42;36.20;52.45;;
37833;Laerm;23678;48.778;9.160;2022-10-19T05:45:35;43.39;35.94;55.86;;
37833;Laerm;23678;48.778;9.160;2022-10-19T05:48:00;41.32;36.45;56.74;;
37833;Laerm;23678;48.778;9.160;2022-10-19T05:50:25;40.96;35.94;49.81;;
37833;Laerm;23678;48.778;9.160;2022-10-19T05:52:51;42.42;37.12;55.46;;
37833;Laerm;23678;48.778;9.160;2022-10-19T05:55:16;41.38;36.91;53.11;;
37833;Laerm;23678;48.778;9.160;2022-10-19T05:57:41;40.36;36.20;46.91;;
37833;Laerm;23678;48.778;9.160;2022-10-19T06:00:07;41.63;36.20;52.09;;
37833;Laerm;23678;48.778;9.160;2022-10-19T06:02:32;43.24;36.20;67.12;;
37833;Laerm;23678;48.778;9.160;2022-10-19T06:04:57;41.49;36.45;53.59;;
37833;Laerm;23678;48.778;9.160;2022-10-19T06:07:23;40.90;35.94;49.88;;
37833;Laerm;23678;48.778;9.160;2022-10-19T06:09:48;41.85;37.32;49.88;;
37833;Laerm;23678;48.778;9.160;2022-10-19T06:12:13;42.11;36.69;59.10;;
37833;Laerm;23678;48.778;9.160;2022-10-19T06:14:38;42.71;38.81;58.79;;
37833;Laerm;23678;48.778;9.160;2022-10-19T06:17:04;43.87;38.37;56.74;;
37833;Laerm;23678;48.778;9.160;2022-10-19T06:19:30;45.69;35.94;63.40;;
37833;Laerm;23678;48.778;9.160;2022-10-19T06:21:56;43.49;36.69;56.41;;
37833;Laerm;23678;48.778;9.160;2022-10-19T06:24:21;45.89;37.70;59.02;;
37833;Laerm;23678;48.778;9.160;2022-10-19T06:26:46;53.42;40.13;66.26;;
37833;Laerm;23678;48.778;9.160;2022-10-19T06:29:11;44.16;36.91;58.14;;
37833;Laerm;23678;48.778;9.160;2022-10-19T06:31:37;44.12;35.66;58.32;;
37833;Laerm;23678;48.778;9.160;2022-10-19T06:34:02;43.16;35.01;58.77;;
37833;Laerm;23678;48.778;9.160;2022-10-19T06:36:28;44.84;35.36;60.71;;
37833;Laerm;23678;48.778;9.160;2022-10-19T06:38:54;43.51;35.66;57.62;;
37833;Laerm;23678;48.778;9.160;2022-10-19T06:41:20;46.11;39.46;57.13;;
37833;Laerm;23678;48.778;9.160;2022-10-19T06:43:49;44.28;39.70;53.29;;
37833;Laerm;23678;48.778;9.160;2022-10-19T06:46:15;45.21;40.53;54.58;;
37833;Laerm;23678;48.778;9.160;2022-10-19T06:48:50;45.17;41.30;57.80;;
37833;Laerm;23678;48.778;9.160;2022-10-19T06:51:16;45.58;40.13;57.19;;
37833;Laerm;23678;48.778;9.160;2022-10-19T06:53:41;44.02;38.05;50.23;;
37833;Laerm;23678;48.778;9.160;2022-10-19T06:56:07;41.49;35.59;51.11;;
37833;Laerm;23678;48.778;9.160;2022-10-19T06:58:36;40.21;36.20;50.34;;
37833;Laerm;23678;48.778;9.160;2022-10-19T07:01:02;43.36;35.36;52.16;;
37833;Laerm;23678;48.778;9.160;2022-10-19T07:03:28;43.27;34.31;59.10;;
37833;Laerm;23678;48.778;9.160;2022-10-19T07:05:54;41.43;36.45;52.56;;
37833;Laerm;23678;48.778;9.160;2022-10-19T07:08:20;43.11;41.03;54.16;;
37833;Laerm;23678;48.778;9.160;2022-10-19T07:10:48;42.67;38.52;56.77;;
37833;Laerm;23678;48.778;9.160;2022-10-19T07:13:13;43.22;39.08;62.93;;
37833;Laerm;23678;48.778;9.160;2022-10-19T07:15:39;42.68;39.58;50.85;;
37833;Laerm;23678;48.778;9.160;2022-10-19T07:18:04;43.79;40.89;52.67;;
37833;Laerm;23678;48.778;9.160;2022-10-19T07:20:29;44.26;36.69;54.12;;
37833;Laerm;23678;48.778;9.160;2022-10-19T07:22:55;39.39;34.69;49.90;;
37833;Laerm;23678;48.778;9.160;2022-10-19T07:25:20;39.56;35.66;45.60;;
37833;Laerm;23678;48.778;9.160;2022-10-19T07:27:45;40.51;35.66;49.97;;
37833;Laerm;23678;48.778;9.160;2022-10-19T07:30:11;41.14;35.66;51.27;;
37833;Laerm;23678;48.778;9.160;2022-10-19T07:32:36;40.54;36.20;47.67;;
37833;Laerm;23678;48.778;9.160;2022-10-19T07:35:02;40.94;32.93;57.77;;
37833;Laerm;23678;48.778;9.160;2022-10-19T07:37:27;43.11;36.45;60.74;;
37833;Laerm;23678;48.778;9.160;2022-10-19T07:39:52;40.48;35.94;53.56;;
37833;Laerm;23678;48.778;9.160;2022-10-19T07:42:18;40.23;35.36;49.93;;
37833;Laerm;23678;48.778;9.160;2022-10-19T07:44:43;41.26;34.69;55.32;;
37833;Laerm;23678;48.778;9.160;2022-10-19T07:47:08;40.71;35.31;49.34;;
37833;Laerm;23678;48.778;9.160;2022-10-19T07:49:33;41.25;35.66;50.46;;
37833;Laerm;23678;48.778;9.160;2022-10-19T07:51:59;40.21;35.66;58.17;;
37833;Laerm;23678;48.778;9.160;2022-10-19T07:54:24;39.87;35.66;47.34;;
37833;Laerm;23678;48.778;9.160;2022-10-19T07:56:51;40.28;35.04;51.44;;
37833;Laerm;23678;48.778;9.160;2022-10-19T07:59:16;41.55;35.66;56.36;;
37833;Laerm;23678;48.778;9.160;2022-10-19T08:01:42;40.74;36.69;48.23;;
37833;Laerm;23678;48.778;9.160;2022-10-19T08:04:08;41.03;36.91;49.33;;
37833;Laerm;23678;48.778;9.160;2022-10-19T08:06:34;42.36;35.86;53.89;;
37833;Laerm;23678;48.778;9.160;2022-10-19T08:09:00;41.11;35.01;49.98;;
37833;Laerm;23678;48.778;9.160;2022-10-19T08:11:27;43.66;37.32;47.04;;
37833;Laerm;23678;48.778;9.160;2022-10-19T08:13:53;42.49;35.94;56.73;;
37833;Laerm;23678;48.778;9.160;2022-10-19T08:16:25;45.16;36.45;59.21;;
37833;Laerm;23678;48.778;9.160;2022-10-19T08:18:52;40.39;35.36;50.36;;
37833;Laerm;23678;48.778;9.160;2022-10-19T08:21:19;40.52;35.94;54.02;;
37833;Laerm;23678;48.778;9.160;2022-10-19T08:23:45;41.39;35.94;54.98;;
37833;Laerm;23678;48.778;9.160;2022-10-19T08:26:10;42.51;37.32;55.80;;
37833;Laerm;23678;48.778;9.160;2022-10-19T08:28:35;42.54;35.94;57.92;;
37833;Laerm;23678;48.778;9.160;2022-10-19T08:31:17;39.80;35.04;48.03;;
37833;Laerm;23678;48.778;9.160;2022-10-19T08:33:43;41.24;35.94;52.31;;
37833;Laerm;23678;48.778;9.160;2022-10-19T08:36:09;41.96;35.66;52.19;;
37833;Laerm;23678;48.778;9.160;2022-10-19T08:38:35;39.86;35.04;45.14;;
37833;Laerm;23678;48.778;9.160;2022-10-19T08:41:14;38.88;34.31;48.76;;
37833;Laerm;23678;48.778;9.160;2022-10-19T08:43:47;41.99;34.31;56.24;;
37833;Laerm;23678;48.778;9.160;2022-10-19T08:46:26;40.25;35.66;54.95;;
37833;Laerm;23678;48.778;9.160;2022-10-19T08:48:55;39.78;35.86;49.59;;
37833;Laerm;23678;48.778;9.160;2022-10-19T08:51:21;41.53;35.66;54.43;;
37833;Laerm;23678;48.778;9.160;2022-10-19T08:53:56;41.63;36.69;49.69;;
37833;Laerm;23678;48.778;9.160;2022-10-19T08:56:26;39.65;34.69;45.04;;
37833;Laerm;23678;48.778;9.160;2022-10-19T09:04:22;42.51;35.66;50.02;;
37833;Laerm;23678;48.778;9.160;2022-10-19T09:07:35;41.95;35.04;51.70;;
37833;Laerm;23678;48.778;9.160;2022-10-19T09:09:37;41.07;34.31;47.88;;
37833;Laerm;23678;48.778;9.160;2022-10-19T09:12:05;40.63;36.20;57.36;;
37833;Laerm;23678;48.778;9.160;2022-10-19T09:14:37;40.40;35.36;47.55;;
37833;Laerm;23678;48.778;9.160;2022-10-19T09:17:08;40.28;35.66;51.68;;
37833;Laerm;23678;48.778;9.160;2022-10-19T09:19:34;40.71;34.31;52.81;;
37833;Laerm;23678;48.778;9.160;2022-10-19T09:22:04;41.89;35.36;49.43;;
37833;Laerm;23678;48.778;9.160;2022-10-19T09:24:48;42.17;39.21;48.66;;
37833;Laerm;23678;48.778;9.160;2022-10-19T09:27:19;48.58;39.81;74.14;;
37833;Laerm;23678;48.778;9.160;2022-10-19T09:29:47;42.31;37.12;53.65;;
37833;Laerm;23678;48.778;9.160;2022-10-19T09:32:14;44.60;37.70;67.37;;
37833;Laerm;23678;48.778;9.160;2022-10-19T09:37:13;41.17;36.20;46.20;;
37833;Laerm;23678;48.778;9.160;2022-10-19T09:39:38;40.27;33.90;49.84;;
37833;Laerm;23678;48.778;9.160;2022-10-19T09:42:06;41.30;36.34;54.27;;
37833;Laerm;23678;48.778;9.160;2022-10-19T09:44:32;42.79;37.32;54.28;;
37833;Laerm;23678;48.778;9.160;2022-10-19T09:49:39;39.37;34.69;49.06;;
37833;Laerm;23678;48.778;9.160;2022-10-19T09:52:08;39.31;33.90;48.90;;
37833;Laerm;23678;48.778;9.160;2022-10-19T09:54:48;42.23;31.68;57.98;;
37833;Laerm;23678;48.778;9.160;2022-10-19T09:57:18;39.82;34.69;51.73;;
37833;Laerm;23678;48.778;9.160;2022-10-19T09:59:44;41.31;33.90;53.69;;
37833;Laerm;23678;48.778;9.160;2022-10-19T10:02:16;41.64;35.04;53.14;;
37833;Laerm;23678;48.778;9.160;2022-10-19T10:04:45;43.83;35.36;71.69;;
37833;Laerm;23678;48.778;9.160;2022-10-19T10:07:13;40.07;35.04;49.77;;
37833;Laerm;23678;48.778;9.160;2022-10-19T10:09:39;39.92;34.69;48.49;;
37833;Laerm;23678;48.778;9.160;2022-10-19T10:12:06;39.45;33.90;47.84;;
37833;Laerm;23678;48.778;9.160;2022-10-19T10:14:34;41.50;34.31;53.18;;
37833;Laerm;23678;48.778;9.160;2022-10-19T10:17:04;40.28;35.01;50.94;;
37833;Laerm;23678;48.778;9.160;2022-10-19T10:19:31;42.93;35.36;58.04;;
37833;Laerm;23678;48.778;9.160;2022-10-19T10:21:58;40.91;35.31;49.79;;
37833;Laerm;23678;48.778;9.160;2022-10-19T10:24:24;46.99;35.04;63.44;;
37833;Laerm;23678;48.778;9.160;2022-10-19T10:26:54;40.75;34.69;58.02;;
37833;Laerm;23678;48.778;9.160;2022-10-19T10:31:50;41.82;35.36;51.47;;
37833;Laerm;23678;48.778;9.160;2022-10-19T10:34:18;41.23;34.69;49.82;;
37833;Laerm;23678;48.778;9.160;2022-10-19T10:36:48;41.63;36.20;51.36;;
37833;Laerm;23678;48.778;9.160;2022-10-19T10:39:14;40.73;35.04;52.78;;
37833;Laerm;23678;48.778;9.160;2022-10-19T10:41:42;44.26;35.36;58.78;;
37833;Laerm;23678;48.778;9.160;2022-10-19T10:44:16;42.07;35.59;55.55;;
37833;Laerm;23678;48.778;9.160;2022-10-19T10:46:56;39.77;34.69;54.03;;
37833;Laerm;23678;48.778;9.160;2022-10-19T10:49:23;40.54;33.44;50.61;;
37833;Laerm;23678;48.778;9.160;2022-10-19T10:51:51;39.92;35.36;46.23;;
37833;Laerm;23678;48.778;9.160;2022-10-19T10:54:19;41.23;35.36;52.39;;
37833;Laerm;23678;48.778;9.160;2022-10-19T10:57:05;40.97;33.90;51.37;;
37833;Laerm;23678;48.778;9.160;2022-10-19T11:04:44;42.31;36.69;58.53;;
37833;Laerm;23678;48.778;9.160;2022-10-19T11:07:25;46.20;36.69;72.19;;
37833;Laerm;23678;48.778;9.160;2022-10-19T11:10:10;42.76;36.20;54.02;;
37833;Laerm;23678;48.778;9.160;2022-10-19T11:12:40;41.39;35.04;53.36;;
37833;Laerm;23678;48.778;9.160;2022-10-19T11:18:01;41.00;32.35;61.28;;
37833;Laerm;23678;48.778;9.160;2022-10-19T11:20:29;39.92;33.90;53.35;;
37833;Laerm;23678;48.778;9.160;2022-10-19T11:23:17;40.78;34.69;51.13;;
37833;Laerm;23678;48.778;9.160;2022-10-19T11:28:46;44.16;37.12;57.19;;
37833;Laerm;23678;48.778;9.160;2022-10-19T11:33:47;41.53;35.36;56.58;;
37833;Laerm;23678;48.778;9.160;2022-10-19T11:36:19;41.45;36.20;57.30;;
37833;Laerm;23678;48.778;9.160;2022-10-19T11:39:03;40.37;33.90;44.94;;
37833;Laerm;23678;48.778;9.160;2022-10-19T11:49:39;40.35;35.01;52.02;;
37833;Laerm;23678;48.778;9.160;2022-10-19T11:52:21;41.40;35.04;50.27;;
37833;Laerm;23678;48.778;9.160;2022-10-19T12:00:41;40.29;33.90;50.57;;
37833;Laerm;23678;48.778;9.160;2022-10-19T12:03:13;40.89;33.90;47.34;;
37833;Laerm;23678;48.778;9.160;2022-10-19T12:10:40;42.24;34.69;54.07;;
37833;Laerm;23678;48.778;9.160;2022-10-19T12:13:14;43.87;35.04;56.21;;
37833;Laerm;23678;48.778;9.160;2022-10-19T12:15:42;42.50;36.69;49.54;;
37833;Laerm;23678;48.778;9.160;2022-10-19T12:18:11;41.19;33.44;52.96;;
37833;Laerm;23678;48.778;9.160;2022-10-19T12:20:42;42.74;35.04;58.82;;
37833;Laerm;23678;48.778;9.160;2022-10-19T12:23:29;41.89;33.90;47.63;;
37833;Laerm;23678;48.778;9.160;2022-10-19T12:25:57;40.94;31.68;49.49;;
37833;Laerm;23678;48.778;9.160;2022-10-19T12:28:26;44.58;35.04;60.42;;
37833;Laerm;23678;48.778;9.160;2022-10-19T12:30:52;44.15;34.31;58.58;;
37833;Laerm;23678;48.778;9.160;2022-10-19T12:38:38;55.32;36.69;75.17;;
37833;Laerm;23678;48.778;9.160;2022-10-19T12:41:12;40.25;35.36;48.55;;
37833;Laerm;23678;48.778;9.160;2022-10-19T12:43:57;40.10;34.69;46.55;;
37833;Laerm;23678;48.778;9.160;2022-10-19T12:51:44;41.85;32.93;58.28;;
37833;Laerm;23678;48.778;9.160;2022-10-19T12:54:10;40.18;33.90;51.10;;
37833;Laerm;23678;48.778;9.160;2022-10-19T12:56:46;39.08;33.55;44.23;;
37833;Laerm;23678;48.778;9.160;2022-10-19T12:59:46;41.74;36.91;52.58;;
37833;Laerm;23678;48.778;9.160;2022-10-19T13:02:04;41.44;35.04;54.66;;
37833;Laerm;23678;48.778;9.160;2022-10-19T13:04:50;40.29;34.69;54.10;;
37833;Laerm;23678;48.778;9.160;2022-10-19T13:07:16;40.17;34.31;50.30;;
37833;Laerm;23678;48.778;9.160;2022-10-19T13:09:43;39.72;34.69;46.15;;
37833;Laerm;23678;48.778;9.160;2022-10-19T13:17:06;39.93;33.90;58.74;;
37833;Laerm;23678;48.778;9.160;2022-10-19T13:19:32;39.33;33.44;52.14;;
37833;Laerm;23678;48.778;9.160;2022-10-19T13:34:53;44.42;36.20;60.07;;
37833;Laerm;23678;48.778;9.160;2022-10-19T13:37:18;40.36;35.04;47.41;;
37833;Laerm;23678;48.778;9.160;2022-10-19T13:39:44;41.35;33.90;53.41;;
37833;Laerm;23678;48.778;9.160;2022-10-19T13:42:24;41.82;34.69;58.32;;
37833;Laerm;23678;48.778;9.160;2022-10-19T13:44:49;41.76;32.93;66.36;;
37833;Laerm;23678;48.778;9.160;2022-10-19T13:50:01;38.76;33.44;46.84;;
37833;Laerm;23678;48.778;9.160;2022-10-19T14:11:02;40.64;34.31;51.81;;
37833;Laerm;23678;48.778;9.160;2022-10-19T14:13:29;39.52;32.35;51.47;;
37833;Laerm;23678;48.778;9.160;2022-10-19T14:15:56;39.86;33.44;50.65;;
37833;Laerm;23678;48.778;9.160;2022-10-19T14:18:23;39.94;33.44;49.88;;
37833;Laerm;23678;48.778;9.160;2022-10-19T14:20:56;41.34;33.44;57.18;;
37833;Laerm;23678;48.778;9.160;2022-10-19T14:23:31;41.80;34.69;49.87;;
37833;Laerm;23678;48.778;9.160;2022-10-19T14:25:58;39.66;33.97;46.84;;
37833;Laerm;23678;48.778;9.160;2022-10-19T14:28:25;39.06;32.35;46.45;;
37833;Laerm;23678;48.778;9.160;2022-10-19T14:33:22;41.53;33.44;58.27;;
37833;Laerm;23678;48.778;9.160;2022-10-19T14:35:49;40.33;32.93;47.00;;
37833;Laerm;23678;48.778;9.160;2022-10-19T14:38:17;40.24;33.44;47.28;;
37833;Laerm;23678;48.778;9.160;2022-10-19T14:40:43;40.15;33.44;50.02;;
37833;Laerm;23678;48.778;9.160;2022-10-19T14:46:01;41.32;34.31;50.66;;
37833;Laerm;23678;48.778;9.160;2022-10-19T14:48:48;40.33;33.90;45.80;;
37833;Laerm;23678;48.778;9.160;2022-10-19T14:51:22;39.58;32.58;48.45;;
37833;Laerm;23678;48.778;9.160;2022-10-19T14:54:05;40.79;33.90;57.77;;
37833;Laerm;23678;48.778;9.160;2022-10-19T14:56:32;41.15;34.31;60.62;;
37833;Laerm;23678;48.778;9.160;2022-10-19T14:58:59;39.90;33.90;47.16;;
37833;Laerm;23678;48.778;9.160;2022-10-19T15:01:27;41.20;34.69;55.86;;
37833;Laerm;23678;48.778;9.160;2022-10-19T15:03:52;40.15;32.35;47.90;;
37833;Laerm;23678;48.778;9.160;2022-10-19T15:06:22;38.32;33.44;43.77;;
37833;Laerm;23678;48.778;9.160;2022-10-19T15:08:53;39.78;33.44;48.05;;
37833;Laerm;23678;48.778;9.160;2022-10-19T15:11:21;40.53;33.44;47.83;;
37833;Laerm;23678;48.778;9.160;2022-10-19T15:13:48;41.13;34.31;54.38;;
37833;Laerm;23678;48.778;9.160;2022-10-19T15:16:30;41.34;35.31;57.25;;
37833;Laerm;23678;48.778;9.160;2022-10-19T15:19:00;41.32;34.69;56.10;;
37833;Laerm;23678;48.778;9.160;2022-10-19T15:21:26;41.34;33.44;53.25;;
37833;Laerm;23678;48.778;9.160;2022-10-19T15:23:51;40.11;32.93;47.88;;
37833;Laerm;23678;48.778;9.160;2022-10-19T15:26:20;42.16;34.31;55.25;;
37833;Laerm;23678;48.778;9.160;2022-10-19T15:28:51;40.99;34.31;54.08;;
37833;Laerm;23678;48.778;9.160;2022-10-19T15:31:24;39.71;34.31;48.42;;
37833;Laerm;23678;48.778;9.160;2022-10-19T15:33:57;43.06;34.31;61.77;;
37833;Laerm;23678;48.778;9.160;2022-10-19T15:36:23;40.92;33.90;49.16;;
37833;Laerm;23678;48.778;9.160;2022-10-19T15:38:59;41.36;35.04;50.84;;
37833;Laerm;23678;48.778;9.160;2022-10-19T15:41:26;40.96;35.36;53.18;;
37833;Laerm;23678;48.778;9.160;2022-10-19T15:43:59;39.85;35.04;45.07;;
37833;Laerm;23678;48.778;9.160;2022-10-19T15:48:53;40.44;35.04;55.31;;
37833;Laerm;23678;48.778;9.160;2022-10-19T15:53:47;40.32;33.90;47.00;;
37833;Laerm;23678;48.778;9.160;2022-10-19T15:56:12;40.75;34.31;46.95;;
37833;Laerm;23678;48.778;9.160;2022-10-19T15:58:38;40.13;34.31;48.28;;
37833;Laerm;23678;48.778;9.160;2022-10-19T16:01:07;41.50;34.31;51.60;;
37833;Laerm;23678;48.778;9.160;2022-10-19T16:03:34;41.92;35.66;52.80;;
37833;Laerm;23678;48.778;9.160;2022-10-19T16:05:59;40.99;34.31;58.00;;
37833;Laerm;23678;48.778;9.160;2022-10-19T16:08:24;41.12;35.36;52.00;;
37833;Laerm;23678;48.778;9.160;2022-10-19T16:10:50;40.65;34.69;54.62;;